createdAt,value
2018-12-07T00:02:13.063Z,12.70
2018-12-07T00:04:40.935Z,12.70
2018-12-07T00:07:08.380Z,12.70
2018-12-07T00:09:35.827Z,12.70
2018-12-07T00:12:03.262Z,12.70
2018-12-07T00:14:30.721Z,12.70
2018-12-07T00:16:58.221Z,12.80
2018-12-07T00:19:25.661Z,12.80
2018-12-07T00:21:53.120Z,12.80
2018-12-07T00:24:20.573Z,12.80
2018-12-07T00:26:48.015Z,12.80
2018-12-07T00:29:15.466Z,12.80
2018-12-07T00:31:43.229Z,12.80
2018-12-07T00:34:10.675Z,12.80
2018-12-07T00:36:38.346Z,12.80
2018-12-07T00:39:07.002Z,12.80
2018-12-07T00:41:34.458Z,12.80
2018-12-07T00:44:02.619Z,12.80
2018-12-07T00:46:30.079Z,12.90
2018-12-07T00:48:57.970Z,12.90
2018-12-07T00:51:25.529Z,12.80
2018-12-07T00:53:53.063Z,12.80
2018-12-07T00:56:20.532Z,12.80
2018-12-07T00:58:47.970Z,12.90
2018-12-07T01:01:15.421Z,12.80
2018-12-07T01:03:42.887Z,12.80
2018-12-07T01:06:11.271Z,12.80
2018-12-07T01:08:38.760Z,12.80
2018-12-07T01:11:06.203Z,12.80
2018-12-07T01:13:33.651Z,12.80
2018-12-07T01:16:01.099Z,12.80
2018-12-07T01:18:28.572Z,12.80
2018-12-07T01:20:56.547Z,12.70
2018-12-07T01:23:24.003Z,12.70
2018-12-07T01:25:51.449Z,12.60
2018-12-07T01:28:18.905Z,12.50
2018-12-07T01:30:46.428Z,12.50
2018-12-07T01:33:13.959Z,12.40
2018-12-07T01:35:41.399Z,12.40
2018-12-07T01:38:08.867Z,12.30
2018-12-07T01:40:36.315Z,12.20
2018-12-07T01:43:04.174Z,12.20
2018-12-07T01:45:31.599Z,12.30
2018-12-07T01:47:59.050Z,12.20
2018-12-07T01:50:26.495Z,12.20
2018-12-07T01:52:53.955Z,12.30
2018-12-07T01:55:21.416Z,12.20
2018-12-07T01:57:48.885Z,12.20
2018-12-07T02:00:16.327Z,12.20
2018-12-07T02:02:43.763Z,12.10
2018-12-07T02:05:11.234Z,12.10
2018-12-07T02:07:38.782Z,12.00
2018-12-07T02:10:06.459Z,12.00
2018-12-07T02:12:34.027Z,11.90
2018-12-07T02:15:01.471Z,11.90
2018-12-07T02:17:28.920Z,11.90
2018-12-07T02:19:56.380Z,11.90
2018-12-07T02:22:23.819Z,11.90
2018-12-07T02:24:51.274Z,11.90
2018-12-07T02:27:18.713Z,11.90
2018-12-07T02:29:46.230Z,11.90
2018-12-07T02:32:13.686Z,11.90
2018-12-07T02:34:41.135Z,12.00
2018-12-07T02:37:08.646Z,12.00
2018-12-07T02:39:36.130Z,12.00
2018-12-07T02:42:03.628Z,12.00
2018-12-07T02:44:31.139Z,12.10
2018-12-07T02:46:58.595Z,12.10
2018-12-07T02:49:26.032Z,12.10
2018-12-07T02:51:53.482Z,12.20
2018-12-07T02:54:20.923Z,12.20
2018-12-07T02:56:48.374Z,12.20
2018-12-07T02:59:15.850Z,12.20
2018-12-07T03:01:43.302Z,12.20
2018-12-07T03:04:10.774Z,12.20
2018-12-07T03:06:38.273Z,12.30
2018-12-07T03:09:06.046Z,12.30
2018-12-07T03:11:33.534Z,12.30
2018-12-07T03:14:00.979Z,12.40
2018-12-07T03:16:28.431Z,12.40
2018-12-07T03:18:55.875Z,12.30
2018-12-07T03:21:23.334Z,12.30
2018-12-07T03:23:50.779Z,12.30
2018-12-07T03:26:18.243Z,12.20
2018-12-07T03:28:46.539Z,12.20
2018-12-07T03:31:14.203Z,12.30
2018-12-07T03:33:41.656Z,12.30
2018-12-07T03:36:09.127Z,12.30
2018-12-07T03:38:36.578Z,12.30
2018-12-07T03:41:04.123Z,12.30
2018-12-07T03:43:31.582Z,12.30
2018-12-07T03:45:59.024Z,12.30
2018-12-07T03:48:26.470Z,12.30
2018-12-07T03:50:53.936Z,12.30
2018-12-07T03:53:21.384Z,12.40
2018-12-07T03:55:48.832Z,12.40
2018-12-07T03:58:16.284Z,12.40
2018-12-07T04:00:43.723Z,12.40
2018-12-07T04:03:11.177Z,12.40
2018-12-07T04:05:38.641Z,12.40
2018-12-07T04:08:06.718Z,12.30
2018-12-07T04:10:34.159Z,12.30
2018-12-07T04:13:01.607Z,12.10
2018-12-07T04:15:29.111Z,12.10
2018-12-07T04:17:56.584Z,12.00
2018-12-07T04:20:24.028Z,11.90
2018-12-07T04:22:51.479Z,11.80
2018-12-07T04:25:18.932Z,11.80
2018-12-07T04:27:46.371Z,11.70
2018-12-07T04:30:29.433Z,11.70
2018-12-07T04:32:56.880Z,11.60
2018-12-07T04:35:24.327Z,11.60
2018-12-07T04:37:51.863Z,11.50
2018-12-07T04:40:19.389Z,11.50
2018-12-07T04:42:46.824Z,11.50
2018-12-07T04:45:14.340Z,11.40
2018-12-07T04:47:41.810Z,11.40
2018-12-07T04:50:09.432Z,11.30
2018-12-07T04:52:36.936Z,11.30
2018-12-07T04:55:04.918Z,11.30
2018-12-07T04:57:32.375Z,11.30
2018-12-07T04:59:59.817Z,11.20
2018-12-07T05:02:27.281Z,11.20
2018-12-07T05:04:54.739Z,11.10
2018-12-07T05:07:22.200Z,11.10
2018-12-07T05:09:49.669Z,11.20
2018-12-07T05:12:17.110Z,11.10
2018-12-07T05:14:44.548Z,11.10
2018-12-07T05:17:11.999Z,11.10
2018-12-07T05:19:39.458Z,11.10
2018-12-07T05:22:06.998Z,11.10
2018-12-07T05:24:34.788Z,11.10
2018-12-07T05:27:02.638Z,11.10
2018-12-07T05:29:30.090Z,11.10
2018-12-07T05:31:57.635Z,11.10
2018-12-07T05:34:25.182Z,11.00
2018-12-07T05:36:53.469Z,11.10
2018-12-07T05:39:20.910Z,11.00
2018-12-07T05:41:48.372Z,11.00
2018-12-07T05:44:16.417Z,11.00
2018-12-07T05:46:43.901Z,11.00
2018-12-07T05:49:11.365Z,10.90
2018-12-07T05:51:38.803Z,10.90
2018-12-07T05:54:06.259Z,10.90
2018-12-07T05:56:33.717Z,11.10
2018-12-07T05:59:01.189Z,11.10
2018-12-07T06:01:28.626Z,11.00
2018-12-07T06:03:56.125Z,10.90
2018-12-07T06:06:23.564Z,10.90
2018-12-07T06:08:51.015Z,10.90
2018-12-07T06:11:18.459Z,10.90
2018-12-07T06:13:45.927Z,10.80
2018-12-07T06:16:13.371Z,10.80
2018-12-07T06:18:41.563Z,10.80
2018-12-07T06:21:09.045Z,10.80
2018-12-07T06:23:36.483Z,10.80
2018-12-07T06:26:04.010Z,10.80
2018-12-07T06:28:31.554Z,10.80
2018-12-07T06:30:58.995Z,10.80
2018-12-07T06:33:26.449Z,10.80
2018-12-07T06:35:53.894Z,10.80
2018-12-07T06:38:21.351Z,10.80
2018-12-07T06:40:48.881Z,10.80
2018-12-07T06:43:16.340Z,10.80
2018-12-07T06:45:43.784Z,10.80
2018-12-07T06:48:11.244Z,10.80
2018-12-07T06:50:38.678Z,10.80
2018-12-07T06:53:06.126Z,10.80
2018-12-07T06:55:33.581Z,10.90
2018-12-07T06:58:01.042Z,10.90
2018-12-07T07:00:28.484Z,10.90
2018-12-07T07:02:55.923Z,10.80
2018-12-07T07:05:23.392Z,10.90
2018-12-07T07:07:50.857Z,10.90
2018-12-07T07:10:18.307Z,10.90
2018-12-07T07:12:45.759Z,10.90
2018-12-07T07:15:13.214Z,11.00
2018-12-07T07:17:40.655Z,11.00
2018-12-07T07:20:08.234Z,11.00
2018-12-07T07:22:35.886Z,11.10
2018-12-07T07:25:03.764Z,11.20
2018-12-07T07:27:31.222Z,11.20
2018-12-07T07:29:58.674Z,11.30
2018-12-07T07:32:26.219Z,11.30
2018-12-07T07:34:53.663Z,11.40
2018-12-07T07:37:21.114Z,11.40
2018-12-07T07:39:48.553Z,11.40
2018-12-07T07:42:16.093Z,11.50
2018-12-07T07:44:43.526Z,11.50
2018-12-07T07:47:10.975Z,11.60
2018-12-07T07:49:38.419Z,11.60
2018-12-07T07:52:05.988Z,11.60
2018-12-07T07:54:33.423Z,11.70
2018-12-07T07:57:00.855Z,11.70
2018-12-07T07:59:28.316Z,11.70
2018-12-07T08:01:55.861Z,11.60
2018-12-07T08:04:23.543Z,11.60
2018-12-07T08:06:50.991Z,11.60
2018-12-07T08:09:18.474Z,11.60
2018-12-07T08:11:45.906Z,11.70
2018-12-07T08:14:13.364Z,11.70
2018-12-07T08:16:40.798Z,11.70
2018-12-07T08:19:08.328Z,11.70
2018-12-07T08:21:35.760Z,11.70
2018-12-07T08:24:03.374Z,11.80
2018-12-07T08:26:30.806Z,11.80
2018-12-07T08:28:58.264Z,11.80
2018-12-07T08:31:25.781Z,11.90
2018-12-07T08:33:53.285Z,11.90
2018-12-07T08:36:20.758Z,11.90
2018-12-07T08:38:48.203Z,11.90
2018-12-07T08:41:15.654Z,11.90
2018-12-07T08:43:43.107Z,12.00
2018-12-07T08:46:10.575Z,11.90
2018-12-07T08:48:38.010Z,11.90
2018-12-07T08:51:05.523Z,12.00
2018-12-07T08:53:33.227Z,12.00
2018-12-07T08:56:00.667Z,12.00
2018-12-07T08:58:28.138Z,12.10
2018-12-07T09:00:55.672Z,12.10
2018-12-07T09:03:23.228Z,12.10
2018-12-07T09:05:50.743Z,12.20
2018-12-07T09:08:18.311Z,12.20
2018-12-07T09:10:45.756Z,12.20
2018-12-07T09:13:13.212Z,12.20
2018-12-07T09:15:41.268Z,12.30
2018-12-07T09:18:08.718Z,12.30
2018-12-07T09:20:36.179Z,12.30
2018-12-07T09:23:03.687Z,12.30
2018-12-07T09:25:31.164Z,12.30
2018-12-07T09:27:58.679Z,12.30
2018-12-07T09:30:26.136Z,12.40
2018-12-07T09:32:53.595Z,12.40
2018-12-07T09:35:21.065Z,12.40
2018-12-07T09:37:48.535Z,12.40
2018-12-07T09:40:16.040Z,12.40
2018-12-07T09:42:43.599Z,12.40
2018-12-07T09:45:11.038Z,12.40
2018-12-07T09:47:38.588Z,12.40
2018-12-07T09:50:06.371Z,12.40
2018-12-07T09:52:33.830Z,12.40
2018-12-07T09:55:01.269Z,12.30
2018-12-07T09:57:28.726Z,12.30
2018-12-07T09:59:56.173Z,12.30
2018-12-07T10:02:23.629Z,12.30
2018-12-07T10:04:51.099Z,12.40
2018-12-07T10:07:19.920Z,12.40
2018-12-07T10:09:47.962Z,12.40
2018-12-07T10:12:15.424Z,12.40
2018-12-07T10:14:44.310Z,12.40
2018-12-07T10:17:12.737Z,12.40
2018-12-07T10:19:40.195Z,12.50
2018-12-07T10:22:07.678Z,12.50
2018-12-07T10:24:35.114Z,12.50
2018-12-07T10:27:04.793Z,12.50
2018-12-07T10:29:32.317Z,12.50
2018-12-07T10:31:59.762Z,12.50
2018-12-07T10:34:27.299Z,12.50
2018-12-07T10:36:54.758Z,12.60
2018-12-07T10:39:22.219Z,12.60
2018-12-07T10:41:49.712Z,12.60
2018-12-07T10:44:17.841Z,12.60
2018-12-07T10:46:46.782Z,12.60
2018-12-07T10:49:14.511Z,12.60
2018-12-07T10:51:42.260Z,12.60
2018-12-07T10:54:10.396Z,12.70
2018-12-07T10:56:38.099Z,12.70
2018-12-07T10:59:05.950Z,12.70
2018-12-07T11:01:39.164Z,12.70
2018-12-07T11:07:25.863Z,12.70
2018-12-07T11:09:58.864Z,12.80
2018-12-07T11:12:32.004Z,12.80
2018-12-07T11:15:05.124Z,12.80
2018-12-07T11:17:38.139Z,12.80
2018-12-07T11:20:11.682Z,12.80
2018-12-07T11:22:44.814Z,12.80
2018-12-07T11:25:17.935Z,12.70
2018-12-07T11:27:50.953Z,12.80
2018-12-07T11:30:23.951Z,12.80
2018-12-07T11:36:00.259Z,12.80
2018-12-07T11:38:27.714Z,12.80
2018-12-07T11:40:55.167Z,12.80
2018-12-07T11:43:22.589Z,12.90
2018-12-07T11:45:50.046Z,12.90
2018-12-07T11:48:17.483Z,12.90
2018-12-07T11:50:44.930Z,12.90
2018-12-07T11:53:12.569Z,13.00
2018-12-07T11:55:40.094Z,13.00
2018-12-07T11:58:07.531Z,13.00
2018-12-07T12:00:35.843Z,13.00
2018-12-07T12:03:03.331Z,13.10
2018-12-07T12:05:31.577Z,13.20
2018-12-07T12:07:59.042Z,13.20
2018-12-07T12:10:27.839Z,13.20
2018-12-07T12:12:55.299Z,13.20
2018-12-07T12:15:22.767Z,13.20
2018-12-07T12:17:50.228Z,13.20
2018-12-07T12:20:17.687Z,13.20
2018-12-07T12:22:45.243Z,13.30
2018-12-07T12:25:12.703Z,13.30
2018-12-07T12:27:40.204Z,13.30
2018-12-07T12:30:07.961Z,13.30
2018-12-07T12:32:35.415Z,13.30
2018-12-07T12:35:02.991Z,13.30
2018-12-07T12:37:30.510Z,13.30
2018-12-07T12:39:57.963Z,13.30
2018-12-07T12:42:25.433Z,13.40
2018-12-07T12:44:52.916Z,13.50
2018-12-07T12:47:20.903Z,13.50
2018-12-07T12:49:48.342Z,13.50
2018-12-07T12:52:15.779Z,13.50
2018-12-07T12:54:43.241Z,13.50
2018-12-07T12:57:10.679Z,13.60
2018-12-07T12:59:38.139Z,14.20
2018-12-07T13:02:05.580Z,14.60
2018-12-07T13:04:33.033Z,15.00
2018-12-07T13:07:00.476Z,15.00
2018-12-07T13:09:27.945Z,14.70
2018-12-07T13:11:55.383Z,14.30
2018-12-07T13:14:23.083Z,14.00
2018-12-07T13:16:50.542Z,13.90
2018-12-07T13:19:18.006Z,13.90
2018-12-07T13:21:45.448Z,13.80
2018-12-07T13:24:12.931Z,13.60
2018-12-07T13:26:40.377Z,13.50
2018-12-07T13:29:07.835Z,13.50
2018-12-07T13:31:35.283Z,13.40
2018-12-07T13:34:02.731Z,13.40
2018-12-07T13:36:30.197Z,13.30
2018-12-07T13:38:57.870Z,13.30
2018-12-07T13:41:25.431Z,13.30
2018-12-07T13:43:53.174Z,13.30
2018-12-07T13:46:20.781Z,13.30
2018-12-07T13:48:48.954Z,13.20
2018-12-07T13:51:16.485Z,13.20
2018-12-07T13:53:44.013Z,13.20
2018-12-07T13:56:16.205Z,13.20
2018-12-07T13:58:40.955Z,13.30
2018-12-07T14:01:08.549Z,13.30
2018-12-07T14:03:36.165Z,13.20
2018-12-07T14:06:03.874Z,13.20
2018-12-07T14:08:31.423Z,13.20
2018-12-07T14:10:59.038Z,13.20
2018-12-07T14:13:26.595Z,13.10
2018-12-07T14:15:54.050Z,13.10
2018-12-07T14:18:21.806Z,13.10
2018-12-07T14:20:49.415Z,13.00
2018-12-07T14:23:17.067Z,13.00
2018-12-07T14:25:45.247Z,13.00
2018-12-07T14:28:12.842Z,12.90
2018-12-07T14:30:40.319Z,12.90
2018-12-07T14:33:07.926Z,12.90
2018-12-07T14:35:35.630Z,12.80
2018-12-07T14:38:03.365Z,12.80
2018-12-07T14:40:30.939Z,12.70
2018-12-07T14:42:58.563Z,12.70
2018-12-07T14:45:26.401Z,12.70
2018-12-07T14:47:53.932Z,12.70
2018-12-07T14:50:21.618Z,12.70
2018-12-07T14:52:49.147Z,12.60
2018-12-07T14:55:16.624Z,12.60
2018-12-07T14:57:44.288Z,12.60
2018-12-07T15:00:11.928Z,12.60
2018-12-07T15:02:39.654Z,12.60
2018-12-07T15:05:07.549Z,12.50
2018-12-07T15:07:35.074Z,12.50
2018-12-07T15:10:02.648Z,12.50
2018-12-07T15:12:30.252Z,12.60
2018-12-07T15:14:57.782Z,12.60
2018-12-07T15:17:25.324Z,12.50
2018-12-07T15:19:52.833Z,12.50
2018-12-07T15:22:20.487Z,12.40
2018-12-07T15:24:48.045Z,12.20
2018-12-07T15:27:16.001Z,12.00
2018-12-07T15:29:43.851Z,11.90
2018-12-07T15:32:12.414Z,11.80
2018-12-07T15:34:40.126Z,11.80
2018-12-07T15:37:07.890Z,11.70
2018-12-07T15:39:35.638Z,11.60
2018-12-07T15:42:03.312Z,11.50
2018-12-07T15:44:31.716Z,11.40
2018-12-07T15:46:59.366Z,11.40
2018-12-07T15:49:26.934Z,11.30
2018-12-07T15:51:54.474Z,11.20
2018-12-07T15:54:22.174Z,11.10
2018-12-07T15:56:49.725Z,11.10
2018-12-07T15:59:17.253Z,11.00
2018-12-07T16:01:45.725Z,11.00
2018-12-07T16:04:13.437Z,10.90
2018-12-07T16:06:41.644Z,10.90
2018-12-07T16:09:09.639Z,10.90
2018-12-07T16:11:39.188Z,10.90
2018-12-07T16:14:06.881Z,10.90
2018-12-07T16:16:34.406Z,10.90
2018-12-07T16:19:01.930Z,10.80
2018-12-07T16:21:29.719Z,10.80
2018-12-07T16:23:57.431Z,10.80
2018-12-07T16:26:24.955Z,10.80
2018-12-07T16:28:52.673Z,10.80
2018-12-07T16:31:20.146Z,10.80
2018-12-07T16:33:47.932Z,10.80
2018-12-07T16:36:15.718Z,10.80
2018-12-07T16:38:43.385Z,10.80
2018-12-07T16:41:10.966Z,10.80
2018-12-07T16:43:38.557Z,10.70
2018-12-07T16:46:06.067Z,10.70
2018-12-07T16:48:33.655Z,10.70
2018-12-07T16:51:01.392Z,10.70
2018-12-07T16:53:28.891Z,10.70
2018-12-07T16:55:56.631Z,10.70
2018-12-07T16:58:24.440Z,10.70
2018-12-07T17:00:52.905Z,10.60
2018-12-07T17:03:20.545Z,10.60
2018-12-07T17:05:48.371Z,10.60
2018-12-07T17:08:16.047Z,10.60
2018-12-07T17:10:43.600Z,10.50
2018-12-07T17:13:11.513Z,10.40
2018-12-07T17:15:40.373Z,10.50
2018-12-07T17:18:07.959Z,10.50
2018-12-07T17:20:35.493Z,10.50
2018-12-07T17:23:03.241Z,10.50
2018-12-07T17:25:30.778Z,10.50
2018-12-07T17:27:58.390Z,10.50
2018-12-07T17:30:25.947Z,10.30
2018-12-07T17:32:53.537Z,10.00
2018-12-07T17:35:21.387Z,10.10
2018-12-07T17:37:49.140Z,10.00
2018-12-07T17:40:16.706Z,9.70
2018-12-07T17:42:44.504Z,9.60
2018-12-07T17:45:12.152Z,9.50
2018-12-07T17:47:39.865Z,9.40
2018-12-07T17:50:07.784Z,9.50
2018-12-07T17:52:35.424Z,9.50
2018-12-07T17:55:03.265Z,9.50
2018-12-07T17:57:30.881Z,9.30
2018-12-07T17:59:58.423Z,9.20
2018-12-07T18:02:25.964Z,9.10
2018-12-07T18:04:53.400Z,8.90
2018-12-07T18:07:20.866Z,8.90
2018-12-07T18:09:48.408Z,8.80
2018-12-07T18:12:15.858Z,8.70
2018-12-07T18:14:43.387Z,8.70
2018-12-07T18:17:10.965Z,8.70
2018-12-07T18:19:38.679Z,8.70
2018-12-07T18:22:06.229Z,8.60
2018-12-07T18:24:34.030Z,8.60
2018-12-07T18:27:01.787Z,8.60
2018-12-07T18:29:29.340Z,8.50
2018-12-07T18:31:56.779Z,8.50
2018-12-07T18:34:24.419Z,8.50
2018-12-07T18:36:52.089Z,8.40
2018-12-07T18:39:19.900Z,8.40
2018-12-07T18:41:47.453Z,8.40
2018-12-07T18:44:15.617Z,8.10
2018-12-07T18:46:43.439Z,7.90
2018-12-07T18:49:10.906Z,7.90
2018-12-07T18:51:38.630Z,7.80
2018-12-07T18:54:06.159Z,7.50
2018-12-07T18:56:33.656Z,7.40
2018-12-07T18:59:01.472Z,7.40
2018-12-07T19:01:29.009Z,7.20
2018-12-07T19:03:56.603Z,7.20
2018-12-07T19:06:24.098Z,7.10
2018-12-07T19:08:51.637Z,7.00
2018-12-07T19:11:19.227Z,7.10
2018-12-07T19:13:46.767Z,7.10
2018-12-07T19:16:14.284Z,7.10
2018-12-07T19:18:41.958Z,7.00
2018-12-07T19:21:09.492Z,7.10
2018-12-07T19:23:37.108Z,7.00
2018-12-07T19:26:04.868Z,7.00
2018-12-07T19:28:32.675Z,6.90
2018-12-07T19:31:00.317Z,7.00
2018-12-07T19:33:28.096Z,7.00
2018-12-07T19:35:55.813Z,6.90
2018-12-07T19:38:24.290Z,6.90
2018-12-07T19:40:54.968Z,7.00
2018-12-07T19:43:22.618Z,7.00
2018-12-07T19:45:50.155Z,7.00
2018-12-07T19:48:18.093Z,7.10
2018-12-07T19:50:45.831Z,7.10
2018-12-07T19:53:13.784Z,7.10
2018-12-07T19:55:44.897Z,7.10
2018-12-07T19:58:14.628Z,7.10
2018-12-07T20:00:42.432Z,7.20
2018-12-07T20:03:10.022Z,7.20
2018-12-07T20:05:37.775Z,7.10
2018-12-07T20:08:05.695Z,7.20
2018-12-07T20:10:33.340Z,7.20
2018-12-07T20:13:00.995Z,7.20
2018-12-07T20:15:28.768Z,7.10
2018-12-07T20:17:56.289Z,7.10
2018-12-07T20:20:24.257Z,7.10
2018-12-07T20:22:51.895Z,7.10
2018-12-07T20:25:19.399Z,7.10
2018-12-07T20:27:47.187Z,7.10
2018-12-07T20:30:15.048Z,7.10
2018-12-07T20:32:43.603Z,7.20
2018-12-07T20:35:11.550Z,7.20
2018-12-07T20:37:39.425Z,7.10
2018-12-07T20:40:07.448Z,7.20
2018-12-07T20:42:36.141Z,7.20
2018-12-07T20:45:03.713Z,7.20
2018-12-07T20:47:31.427Z,7.20
2018-12-07T20:49:59.173Z,7.20
2018-12-07T20:52:26.696Z,7.10
2018-12-07T20:54:54.315Z,7.10
2018-12-07T20:57:21.849Z,7.10
2018-12-07T20:59:49.473Z,7.00
2018-12-07T21:02:17.398Z,7.10
2018-12-07T21:04:44.943Z,7.10
2018-12-07T21:17:06.775Z,6.90
2018-12-07T21:19:35.690Z,7.00
2018-12-07T21:22:03.470Z,7.10
2018-12-07T21:24:31.270Z,7.10
2018-12-07T21:26:58.986Z,7.10
2018-12-07T21:29:27.165Z,7.00
2018-12-07T21:31:57.614Z,7.20
2018-12-07T21:37:28.693Z,7.30
2018-12-07T21:40:00.034Z,7.30
2018-12-07T21:42:27.618Z,7.40
2018-12-07T21:44:55.355Z,7.30
2018-12-07T21:47:43.914Z,7.30
2018-12-07T21:50:14.260Z,7.30
2018-12-07T21:52:41.995Z,7.00
2018-12-07T21:55:09.655Z,6.40
2018-12-07T21:57:37.395Z,6.10
2018-12-07T22:00:05.902Z,6.00
2018-12-07T22:02:33.415Z,5.90
2018-12-07T22:05:01.209Z,5.90
2018-12-07T22:07:28.772Z,5.90
2018-12-07T22:09:56.446Z,5.80
2018-12-07T22:12:24.071Z,5.80
2018-12-07T22:14:51.535Z,5.80
2018-12-07T22:17:18.993Z,5.90
2018-12-07T22:19:46.561Z,6.00
2018-12-07T22:22:14.314Z,6.00
2018-12-07T22:24:41.764Z,6.20
2018-12-07T22:27:09.320Z,6.20
2018-12-07T22:29:36.952Z,6.30
2018-12-07T22:32:04.530Z,6.50
2018-12-07T22:34:32.064Z,6.60
2018-12-07T22:36:59.625Z,6.60
2018-12-07T22:39:27.177Z,6.60
2018-12-07T22:41:54.659Z,6.70
2018-12-07T22:44:22.099Z,6.80
2018-12-07T22:46:49.723Z,6.90
2018-12-07T22:49:17.196Z,6.80
2018-12-07T22:51:49.491Z,6.70
2018-12-07T22:54:18.868Z,6.80
2018-12-07T22:56:46.316Z,6.80
2018-12-07T22:59:14.238Z,6.80
2018-12-07T23:01:41.812Z,6.80
2018-12-07T23:04:09.283Z,6.70
2018-12-07T23:06:36.884Z,6.70
2018-12-07T23:09:05.795Z,6.80
2018-12-07T23:11:33.266Z,6.70
2018-12-07T23:14:00.716Z,6.70
2018-12-07T23:16:30.011Z,6.70
2018-12-07T23:18:57.598Z,6.60
2018-12-07T23:21:25.719Z,6.60
2018-12-07T23:23:53.179Z,6.60
2018-12-07T23:26:20.625Z,6.60
2018-12-07T23:28:48.064Z,6.70
2018-12-07T23:31:16.207Z,6.70
2018-12-07T23:33:44.348Z,6.80
2018-12-07T23:36:11.897Z,6.90
2018-12-07T23:38:39.819Z,6.80
2018-12-07T23:41:07.256Z,6.80
2018-12-07T23:43:34.764Z,7.00
2018-12-07T23:46:02.215Z,6.90
2018-12-07T23:48:29.651Z,6.90
2018-12-07T23:50:57.102Z,6.90
2018-12-07T23:53:24.547Z,7.00
2018-12-07T23:55:51.993Z,7.00
2018-12-07T23:58:19.432Z,6.90
